sensor_id;sensor_type;location;lat;lon;timestamp;P1;durP1;ratioP1;P2;durP2;ratioP2
45392;SDS011;31129;44.810;10.334;2024-02-21T00:00:38;34.38;;;20.33;;
45392;SDS011;31129;44.810;10.334;2024-02-21T00:03:05;30.17;;;19.00;;
45392;SDS011;31129;44.810;10.334;2024-02-21T00:05:31;32.90;;;20.08;;
45392;SDS011;31129;44.810;10.334;2024-02-21T00:07:58;29.45;;;19.35;;
45392;SDS011;31129;44.810;10.334;2024-02-21T00:10:24;27.08;;;18.08;;
45392;SDS011;31129;44.810;10.334;2024-02-21T00:12:50;26.30;;;18.40;;
45392;SDS011;31129;44.810;10.334;2024-02-21T00:15:16;30.27;;;18.23;;
45392;SDS011;31129;44.810;10.334;2024-02-21T00:17:43;26.25;;;16.77;;
45392;SDS011;31129;44.810;10.334;2024-02-21T00:20:09;24.67;;;16.50;;
45392;SDS011;31129;44.810;10.334;2024-02-21T00:22:35;30.77;;;19.15;;
45392;SDS011;31129;44.810;10.334;2024-02-21T00:25:01;26.10;;;17.35;;
45392;SDS011;31129;44.810;10.334;2024-02-21T00:27:26;25.23;;;16.33;;
45392;SDS011;31129;44.810;10.334;2024-02-21T00:29:52;24.33;;;16.75;;
45392;SDS011;31129;44.810;10.334;2024-02-21T00:32:18;25.70;;;17.52;;
45392;SDS011;31129;44.810;10.334;2024-02-21T00:34:43;22.67;;;15.80;;
45392;SDS011;31129;44.810;10.334;2024-02-21T00:37:09;25.92;;;16.60;;
45392;SDS011;31129;44.810;10.334;2024-02-21T00:39:34;21.55;;;16.30;;
45392;SDS011;31129;44.810;10.334;2024-02-21T00:42:00;25.50;;;16.55;;
45392;SDS011;31129;44.810;10.334;2024-02-21T00:44:26;23.88;;;15.80;;
45392;SDS011;31129;44.810;10.334;2024-02-21T00:46:51;24.45;;;16.48;;
45392;SDS011;31129;44.810;10.334;2024-02-21T00:49:17;24.08;;;16.13;;
45392;SDS011;31129;44.810;10.334;2024-02-21T00:51:43;25.90;;;16.23;;
45392;SDS011;31129;44.810;10.334;2024-02-21T00:54:09;23.92;;;16.58;;
45392;SDS011;31129;44.810;10.334;2024-02-21T00:56:34;25.48;;;15.95;;
45392;SDS011;31129;44.810;10.334;2024-02-21T00:59:00;24.05;;;16.15;;
45392;SDS011;31129;44.810;10.334;2024-02-21T01:01:25;26.20;;;16.98;;
45392;SDS011;31129;44.810;10.334;2024-02-21T01:03:51;25.92;;;18.02;;
45392;SDS011;31129;44.810;10.334;2024-02-21T01:06:20;27.05;;;16.33;;
45392;SDS011;31129;44.810;10.334;2024-02-21T01:08:49;23.67;;;16.02;;
45392;SDS011;31129;44.810;10.334;2024-02-21T01:11:15;22.15;;;16.15;;
45392;SDS011;31129;44.810;10.334;2024-02-21T01:13:41;26.90;;;16.48;;
45392;SDS011;31129;44.810;10.334;2024-02-21T01:16:06;29.23;;;18.65;;
45392;SDS011;31129;44.810;10.334;2024-02-21T01:18:33;25.27;;;17.25;;
45392;SDS011;31129;44.810;10.334;2024-02-21T01:20:58;26.77;;;17.95;;
45392;SDS011;31129;44.810;10.334;2024-02-21T01:23:24;24.67;;;17.00;;
45392;SDS011;31129;44.810;10.334;2024-02-21T01:25:50;25.60;;;17.77;;
45392;SDS011;31129;44.810;10.334;2024-02-21T01:28:16;22.38;;;16.35;;
45392;SDS011;31129;44.810;10.334;2024-02-21T01:30:42;23.48;;;16.70;;
45392;SDS011;31129;44.810;10.334;2024-02-21T01:33:07;23.75;;;16.65;;
45392;SDS011;31129;44.810;10.334;2024-02-21T01:35:34;24.25;;;15.98;;
45392;SDS011;31129;44.810;10.334;2024-02-21T01:37:59;21.05;;;15.50;;
45392;SDS011;31129;44.810;10.334;2024-02-21T01:40:25;21.88;;;15.90;;
45392;SDS011;31129;44.810;10.334;2024-02-21T01:42:50;24.65;;;16.85;;
45392;SDS011;31129;44.810;10.334;2024-02-21T01:45:18;22.08;;;15.88;;
45392;SDS011;31129;44.810;10.334;2024-02-21T01:47:44;22.85;;;15.88;;
45392;SDS011;31129;44.810;10.334;2024-02-21T01:50:10;24.42;;;15.93;;
45392;SDS011;31129;44.810;10.334;2024-02-21T01:52:37;21.38;;;15.50;;
45392;SDS011;31129;44.810;10.334;2024-02-21T01:55:04;22.88;;;14.70;;
45392;SDS011;31129;44.810;10.334;2024-02-21T01:57:30;21.80;;;14.98;;
45392;SDS011;31129;44.810;10.334;2024-02-21T01:59:56;23.10;;;15.73;;
45392;SDS011;31129;44.810;10.334;2024-02-21T02:02:22;23.13;;;15.52;;
45392;SDS011;31129;44.810;10.334;2024-02-21T02:04:48;20.58;;;13.85;;
45392;SDS011;31129;44.810;10.334;2024-02-21T02:07:14;22.35;;;14.68;;
45392;SDS011;31129;44.810;10.334;2024-02-21T02:09:39;23.58;;;15.05;;
45392;SDS011;31129;44.810;10.334;2024-02-21T02:12:05;21.98;;;14.98;;
45392;SDS011;31129;44.810;10.334;2024-02-21T02:14:31;22.98;;;15.10;;
45392;SDS011;31129;44.810;10.334;2024-02-21T02:16:56;22.92;;;15.35;;
45392;SDS011;31129;44.810;10.334;2024-02-21T02:19:21;23.13;;;14.80;;
45392;SDS011;31129;44.810;10.334;2024-02-21T02:21:49;19.98;;;14.27;;
45392;SDS011;31129;44.810;10.334;2024-02-21T02:24:20;19.77;;;14.13;;
45392;SDS011;31129;44.810;10.334;2024-02-21T02:26:47;21.17;;;13.73;;
45392;SDS011;31129;44.810;10.334;2024-02-21T02:29:12;21.45;;;14.00;;
45392;SDS011;31129;44.810;10.334;2024-02-21T02:31:38;18.10;;;13.50;;
45392;SDS011;31129;44.810;10.334;2024-02-21T02:34:03;24.08;;;14.13;;
45392;SDS011;31129;44.810;10.334;2024-02-21T02:36:31;18.73;;;13.20;;
45392;SDS011;31129;44.810;10.334;2024-02-21T02:38:58;18.13;;;13.88;;
45392;SDS011;31129;44.810;10.334;2024-02-21T02:41:23;21.55;;;13.73;;
45392;SDS011;31129;44.810;10.334;2024-02-21T02:43:49;21.73;;;13.45;;
45392;SDS011;31129;44.810;10.334;2024-02-21T02:46:14;21.98;;;13.15;;
45392;SDS011;31129;44.810;10.334;2024-02-21T02:48:40;23.23;;;13.15;;
45392;SDS011;31129;44.810;10.334;2024-02-21T02:51:05;18.73;;;13.57;;
45392;SDS011;31129;44.810;10.334;2024-02-21T02:53:31;18.67;;;13.02;;
45392;SDS011;31129;44.810;10.334;2024-02-21T02:55:57;18.77;;;14.15;;
45392;SDS011;31129;44.810;10.334;2024-02-21T02:58:22;22.25;;;13.68;;
45392;SDS011;31129;44.810;10.334;2024-02-21T03:00:48;17.77;;;13.18;;
45392;SDS011;31129;44.810;10.334;2024-02-21T03:03:14;21.00;;;13.63;;
45392;SDS011;31129;44.810;10.334;2024-02-21T03:05:39;18.50;;;12.13;;
45392;SDS011;31129;44.810;10.334;2024-02-21T03:08:05;19.38;;;12.73;;
45392;SDS011;31129;44.810;10.334;2024-02-21T03:10:35;16.48;;;11.25;;
45392;SDS011;31129;44.810;10.334;2024-02-21T03:13:01;18.58;;;12.18;;
45392;SDS011;31129;44.810;10.334;2024-02-21T03:15:26;17.65;;;12.05;;
45392;SDS011;31129;44.810;10.334;2024-02-21T03:17:52;17.20;;;12.50;;
45392;SDS011;31129;44.810;10.334;2024-02-21T03:20:17;17.50;;;12.55;;
45392;SDS011;31129;44.810;10.334;2024-02-21T03:22:45;21.10;;;13.35;;
45392;SDS011;31129;44.810;10.334;2024-02-21T03:25:10;21.08;;;13.05;;
45392;SDS011;31129;44.810;10.334;2024-02-21T03:27:37;18.83;;;13.10;;
45392;SDS011;31129;44.810;10.334;2024-02-21T03:30:04;22.00;;;12.27;;
45392;SDS011;31129;44.810;10.334;2024-02-21T03:32:30;16.20;;;11.13;;
45392;SDS011;31129;44.810;10.334;2024-02-21T03:34:55;17.48;;;11.88;;
45392;SDS011;31129;44.810;10.334;2024-02-21T03:37:21;22.65;;;13.10;;
45392;SDS011;31129;44.810;10.334;2024-02-21T03:39:47;21.13;;;12.90;;
45392;SDS011;31129;44.810;10.334;2024-02-21T03:42:12;20.80;;;13.75;;
45392;SDS011;31129;44.810;10.334;2024-02-21T03:44:38;22.55;;;14.55;;
45392;SDS011;31129;44.810;10.334;2024-02-21T03:47:04;23.95;;;14.10;;
45392;SDS011;31129;44.810;10.334;2024-02-21T03:49:30;22.95;;;13.98;;
45392;SDS011;31129;44.810;10.334;2024-02-21T03:51:55;26.02;;;16.25;;
45392;SDS011;31129;44.810;10.334;2024-02-21T03:54:21;25.48;;;16.85;;
45392;SDS011;31129;44.810;10.334;2024-02-21T03:56:46;25.45;;;15.82;;
45392;SDS011;31129;44.810;10.334;2024-02-21T04:01:40;24.90;;;15.68;;
45392;SDS011;31129;44.810;10.334;2024-02-21T04:04:06;25.23;;;16.75;;
45392;SDS011;31129;44.810;10.334;2024-02-21T04:06:31;26.58;;;16.90;;
45392;SDS011;31129;44.810;10.334;2024-02-21T04:08:57;24.08;;;15.95;;
45392;SDS011;31129;44.810;10.334;2024-02-21T04:11:23;27.35;;;16.13;;
45392;SDS011;31129;44.810;10.334;2024-02-21T04:13:48;24.70;;;15.77;;
45392;SDS011;31129;44.810;10.334;2024-02-21T04:16:15;25.80;;;17.33;;
45392;SDS011;31129;44.810;10.334;2024-02-21T04:18:41;27.45;;;16.42;;
45392;SDS011;31129;44.810;10.334;2024-02-21T04:21:08;26.92;;;17.42;;
45392;SDS011;31129;44.810;10.334;2024-02-21T04:23:34;31.17;;;18.50;;
45392;SDS011;31129;44.810;10.334;2024-02-21T04:25:59;27.83;;;17.00;;
45392;SDS011;31129;44.810;10.334;2024-02-21T04:28:25;28.73;;;17.05;;
45392;SDS011;31129;44.810;10.334;2024-02-21T04:30:50;25.00;;;16.52;;
45392;SDS011;31129;44.810;10.334;2024-02-21T04:33:16;28.90;;;18.05;;
45392;SDS011;31129;44.810;10.334;2024-02-21T04:35:42;28.35;;;17.10;;
45392;SDS011;31129;44.810;10.334;2024-02-21T04:38:07;30.60;;;17.27;;
45392;SDS011;31129;44.810;10.334;2024-02-21T04:40:32;29.90;;;17.85;;
45392;SDS011;31129;44.810;10.334;2024-02-21T04:42:58;26.73;;;16.95;;
45392;SDS011;31129;44.810;10.334;2024-02-21T04:45:23;24.60;;;15.70;;
45392;SDS011;31129;44.810;10.334;2024-02-21T04:47:49;26.30;;;16.23;;
45392;SDS011;31129;44.810;10.334;2024-02-21T04:50:14;23.27;;;14.98;;
45392;SDS011;31129;44.810;10.334;2024-02-21T04:52:40;23.50;;;14.88;;
45392;SDS011;31129;44.810;10.334;2024-02-21T04:55:06;33.10;;;15.85;;
45392;SDS011;31129;44.810;10.334;2024-02-21T04:57:32;25.83;;;16.00;;
45392;SDS011;31129;44.810;10.334;2024-02-21T04:59:58;23.73;;;15.55;;
45392;SDS011;31129;44.810;10.334;2024-02-21T05:02:23;23.58;;;15.13;;
45392;SDS011;31129;44.810;10.334;2024-02-21T05:04:49;24.63;;;14.45;;
45392;SDS011;31129;44.810;10.334;2024-02-21T05:07:15;19.33;;;14.15;;
45392;SDS011;31129;44.810;10.334;2024-02-21T05:09:42;21.48;;;13.98;;
45392;SDS011;31129;44.810;10.334;2024-02-21T05:12:08;22.58;;;15.07;;
45392;SDS011;31129;44.810;10.334;2024-02-21T05:14:33;24.80;;;15.00;;
45392;SDS011;31129;44.810;10.334;2024-02-21T05:16:59;21.60;;;14.10;;
45392;SDS011;31129;44.810;10.334;2024-02-21T05:19:25;22.92;;;14.40;;
45392;SDS011;31129;44.810;10.334;2024-02-21T05:21:50;24.58;;;13.73;;
45392;SDS011;31129;44.810;10.334;2024-02-21T05:24:16;26.55;;;15.00;;
45392;SDS011;31129;44.810;10.334;2024-02-21T05:26:41;22.80;;;14.50;;
45392;SDS011;31129;44.810;10.334;2024-02-21T05:29:07;23.42;;;14.40;;
45392;SDS011;31129;44.810;10.334;2024-02-21T05:34:19;23.38;;;14.82;;
45392;SDS011;31129;44.810;10.334;2024-02-21T05:36:46;23.63;;;16.00;;
45392;SDS011;31129;44.810;10.334;2024-02-21T05:39:12;20.85;;;13.77;;
45392;SDS011;31129;44.810;10.334;2024-02-21T05:41:38;24.15;;;16.23;;
45392;SDS011;31129;44.810;10.334;2024-02-21T05:44:04;22.27;;;15.07;;
45392;SDS011;31129;44.810;10.334;2024-02-21T05:46:30;23.60;;;15.05;;
45392;SDS011;31129;44.810;10.334;2024-02-21T05:48:55;22.83;;;14.57;;
45392;SDS011;31129;44.810;10.334;2024-02-21T05:51:21;25.27;;;15.23;;
45392;SDS011;31129;44.810;10.334;2024-02-21T05:53:46;27.58;;;15.68;;
45392;SDS011;31129;44.810;10.334;2024-02-21T05:56:12;25.80;;;15.90;;
45392;SDS011;31129;44.810;10.334;2024-02-21T05:58:39;25.75;;;15.32;;
45392;SDS011;31129;44.810;10.334;2024-02-21T06:01:05;26.52;;;15.43;;
45392;SDS011;31129;44.810;10.334;2024-02-21T06:03:32;26.67;;;15.10;;
45392;SDS011;31129;44.810;10.334;2024-02-21T06:05:58;26.50;;;15.27;;
45392;SDS011;31129;44.810;10.334;2024-02-21T06:08:24;29.83;;;15.05;;
45392;SDS011;31129;44.810;10.334;2024-02-21T06:10:50;27.52;;;15.05;;
45392;SDS011;31129;44.810;10.334;2024-02-21T06:13:19;26.67;;;15.40;;
45392;SDS011;31129;44.810;10.334;2024-02-21T06:15:46;29.73;;;15.98;;
45392;SDS011;31129;44.810;10.334;2024-02-21T06:18:12;30.85;;;16.80;;
45392;SDS011;31129;44.810;10.334;2024-02-21T06:20:38;32.42;;;17.27;;
45392;SDS011;31129;44.810;10.334;2024-02-21T06:23:05;29.00;;;15.67;;
45392;SDS011;31129;44.810;10.334;2024-02-21T06:25:31;23.40;;;14.68;;
45392;SDS011;31129;44.810;10.334;2024-02-21T06:27:57;28.90;;;14.77;;
45392;SDS011;31129;44.810;10.334;2024-02-21T06:30:22;24.83;;;13.90;;
45392;SDS011;31129;44.810;10.334;2024-02-21T06:32:48;24.55;;;15.30;;
45392;SDS011;31129;44.810;10.334;2024-02-21T06:35:13;21.95;;;13.55;;
45392;SDS011;31129;44.810;10.334;2024-02-21T06:37:39;23.35;;;14.48;;
45392;SDS011;31129;44.810;10.334;2024-02-21T06:40:05;22.38;;;15.18;;
45392;SDS011;31129;44.810;10.334;2024-02-21T06:42:31;28.20;;;15.20;;
45392;SDS011;31129;44.810;10.334;2024-02-21T06:44:56;23.33;;;14.38;;
45392;SDS011;31129;44.810;10.334;2024-02-21T06:47:22;23.85;;;13.45;;
45392;SDS011;31129;44.810;10.334;2024-02-21T06:49:50;22.58;;;14.32;;
45392;SDS011;31129;44.810;10.334;2024-02-21T06:52:19;25.40;;;15.30;;
45392;SDS011;31129;44.810;10.334;2024-02-21T06:54:46;22.05;;;14.02;;
45392;SDS011;31129;44.810;10.334;2024-02-21T06:57:12;26.65;;;14.57;;
45392;SDS011;31129;44.810;10.334;2024-02-21T06:59:39;21.67;;;15.05;;
45392;SDS011;31129;44.810;10.334;2024-02-21T07:02:05;26.63;;;14.50;;
45392;SDS011;31129;44.810;10.334;2024-02-21T07:04:31;27.27;;;14.73;;
45392;SDS011;31129;44.810;10.334;2024-02-21T07:06:56;24.58;;;15.88;;
45392;SDS011;31129;44.810;10.334;2024-02-21T07:09:22;27.30;;;14.88;;
45392;SDS011;31129;44.810;10.334;2024-02-21T07:11:47;24.63;;;14.38;;
45392;SDS011;31129;44.810;10.334;2024-02-21T07:14:14;26.42;;;15.35;;
45392;SDS011;31129;44.810;10.334;2024-02-21T07:16:40;30.95;;;15.50;;
45392;SDS011;31129;44.810;10.334;2024-02-21T07:19:06;29.80;;;15.77;;
45392;SDS011;31129;44.810;10.334;2024-02-21T07:21:31;29.10;;;16.63;;
45392;SDS011;31129;44.810;10.334;2024-02-21T07:23:58;26.42;;;15.77;;
45392;SDS011;31129;44.810;10.334;2024-02-21T07:26:23;27.15;;;15.63;;
45392;SDS011;31129;44.810;10.334;2024-02-21T07:28:49;26.17;;;15.50;;
45392;SDS011;31129;44.810;10.334;2024-02-21T07:31:15;28.42;;;15.57;;
45392;SDS011;31129;44.810;10.334;2024-02-21T07:33:40;27.52;;;15.43;;
45392;SDS011;31129;44.810;10.334;2024-02-21T07:36:07;25.83;;;15.75;;
45392;SDS011;31129;44.810;10.334;2024-02-21T07:38:33;31.88;;;16.05;;
45392;SDS011;31129;44.810;10.334;2024-02-21T07:40:59;29.80;;;15.45;;
45392;SDS011;31129;44.810;10.334;2024-02-21T07:43:25;26.88;;;15.77;;
45392;SDS011;31129;44.810;10.334;2024-02-21T07:45:51;33.20;;;16.73;;
45392;SDS011;31129;44.810;10.334;2024-02-21T07:48:21;30.83;;;16.77;;
45392;SDS011;31129;44.810;10.334;2024-02-21T07:50:50;29.30;;;17.17;;
45392;SDS011;31129;44.810;10.334;2024-02-21T07:53:16;25.90;;;15.50;;
45392;SDS011;31129;44.810;10.334;2024-02-21T07:55:41;29.05;;;15.93;;
45392;SDS011;31129;44.810;10.334;2024-02-21T07:58:07;25.67;;;15.60;;
45392;SDS011;31129;44.810;10.334;2024-02-21T08:00:33;30.88;;;15.23;;
45392;SDS011;31129;44.810;10.334;2024-02-21T08:02:58;27.25;;;15.70;;
45392;SDS011;31129;44.810;10.334;2024-02-21T08:05:24;28.35;;;16.80;;
45392;SDS011;31129;44.810;10.334;2024-02-21T08:07:49;25.15;;;16.00;;
45392;SDS011;31129;44.810;10.334;2024-02-21T08:10:15;25.95;;;15.27;;
45392;SDS011;31129;44.810;10.334;2024-02-21T08:12:41;24.63;;;14.98;;
45392;SDS011;31129;44.810;10.334;2024-02-21T08:15:06;31.23;;;13.30;;
45392;SDS011;31129;44.810;10.334;2024-02-21T08:17:35;24.98;;;13.07;;
45392;SDS011;31129;44.810;10.334;2024-02-21T08:20:02;21.73;;;13.30;;
45392;SDS011;31129;44.810;10.334;2024-02-21T08:22:29;27.52;;;14.63;;
45392;SDS011;31129;44.810;10.334;2024-02-21T08:24:55;22.27;;;12.57;;
45392;SDS011;31129;44.810;10.334;2024-02-21T08:27:20;26.73;;;14.75;;
45392;SDS011;31129;44.810;10.334;2024-02-21T08:29:46;27.17;;;14.80;;
45392;SDS011;31129;44.810;10.334;2024-02-21T08:32:11;29.80;;;15.77;;
45392;SDS011;31129;44.810;10.334;2024-02-21T08:34:37;26.42;;;14.43;;
45392;SDS011;31129;44.810;10.334;2024-02-21T08:37:03;30.15;;;17.30;;
45392;SDS011;31129;44.810;10.334;2024-02-21T08:39:28;33.80;;;18.05;;
45392;SDS011;31129;44.810;10.334;2024-02-21T08:41:55;30.42;;;17.08;;
45392;SDS011;31129;44.810;10.334;2024-02-21T08:44:24;35.55;;;18.30;;
45392;SDS011;31129;44.810;10.334;2024-02-21T08:46:51;33.15;;;18.08;;
45392;SDS011;31129;44.810;10.334;2024-02-21T08:52:22;46.20;;;21.38;;
45392;SDS011;31129;44.810;10.334;2024-02-21T08:54:48;33.92;;;19.40;;
45392;SDS011;31129;44.810;10.334;2024-02-21T08:57:13;35.00;;;20.30;;
45392;SDS011;31129;44.810;10.334;2024-02-21T08:59:39;39.85;;;21.92;;
45392;SDS011;31129;44.810;10.334;2024-02-21T09:02:05;42.05;;;21.08;;
45392;SDS011;31129;44.810;10.334;2024-02-21T09:04:32;41.42;;;21.63;;
45392;SDS011;31129;44.810;10.334;2024-02-21T09:06:58;41.85;;;21.75;;
45392;SDS011;31129;44.810;10.334;2024-02-21T09:09:23;40.92;;;21.75;;
45392;SDS011;31129;44.810;10.334;2024-02-21T09:11:49;41.42;;;22.70;;
45392;SDS011;31129;44.810;10.334;2024-02-21T09:14:14;37.35;;;21.40;;
45392;SDS011;31129;44.810;10.334;2024-02-21T09:16:40;42.28;;;22.30;;
45392;SDS011;31129;44.810;10.334;2024-02-21T09:19:06;39.28;;;22.10;;
45392;SDS011;31129;44.810;10.334;2024-02-21T09:21:35;42.42;;;23.65;;
45392;SDS011;31129;44.810;10.334;2024-02-21T09:24:01;42.90;;;25.98;;
45392;SDS011;31129;44.810;10.334;2024-02-21T09:26:27;50.92;;;27.25;;
45392;SDS011;31129;44.810;10.334;2024-02-21T09:28:53;43.22;;;26.52;;
45392;SDS011;31129;44.810;10.334;2024-02-21T09:31:19;49.05;;;27.33;;
45392;SDS011;31129;44.810;10.334;2024-02-21T09:33:45;53.70;;;29.38;;
45392;SDS011;31129;44.810;10.334;2024-02-21T09:36:10;51.25;;;30.33;;
45392;SDS011;31129;44.810;10.334;2024-02-21T09:38:36;57.33;;;31.77;;
45392;SDS011;31129;44.810;10.334;2024-02-21T09:41:18;56.78;;;33.80;;
45392;SDS011;31129;44.810;10.334;2024-02-21T09:43:47;52.38;;;31.73;;
45392;SDS011;31129;44.810;10.334;2024-02-21T09:46:16;55.83;;;33.10;;
45392;SDS011;31129;44.810;10.334;2024-02-21T09:48:52;53.28;;;30.73;;
45392;SDS011;31129;44.810;10.334;2024-02-21T09:51:28;56.88;;;34.00;;
45392;SDS011;31129;44.810;10.334;2024-02-21T09:53:57;50.67;;;32.90;;
45392;SDS011;31129;44.810;10.334;2024-02-21T09:56:24;57.97;;;34.90;;
45392;SDS011;31129;44.810;10.334;2024-02-21T09:58:50;62.83;;;34.88;;
45392;SDS011;31129;44.810;10.334;2024-02-21T10:01:15;56.83;;;33.42;;
45392;SDS011;31129;44.810;10.334;2024-02-21T10:03:41;61.13;;;33.97;;
45392;SDS011;31129;44.810;10.334;2024-02-21T10:06:09;65.97;;;37.10;;
45392;SDS011;31129;44.810;10.334;2024-02-21T10:08:34;59.33;;;35.45;;
45392;SDS011;31129;44.810;10.334;2024-02-21T10:11:00;60.40;;;35.42;;
45392;SDS011;31129;44.810;10.334;2024-02-21T10:13:27;58.83;;;35.92;;
45392;SDS011;31129;44.810;10.334;2024-02-21T10:16:02;57.78;;;35.00;;
45392;SDS011;31129;44.810;10.334;2024-02-21T10:18:32;58.10;;;34.55;;
45392;SDS011;31129;44.810;10.334;2024-02-21T10:23:52;54.55;;;33.53;;
45392;SDS011;31129;44.810;10.334;2024-02-21T10:26:20;65.65;;;38.13;;
45392;SDS011;31129;44.810;10.334;2024-02-21T10:28:49;69.93;;;41.50;;
45392;SDS011;31129;44.810;10.334;2024-02-21T10:33:57;65.50;;;40.08;;
45392;SDS011;31129;44.810;10.334;2024-02-21T10:36:24;72.03;;;41.50;;
45392;SDS011;31129;44.810;10.334;2024-02-21T10:38:50;65.97;;;40.08;;
45392;SDS011;31129;44.810;10.334;2024-02-21T10:41:17;71.65;;;43.85;;
45392;SDS011;31129;44.810;10.334;2024-02-21T10:43:46;75.10;;;43.53;;
45392;SDS011;31129;44.810;10.334;2024-02-21T10:46:18;69.20;;;40.83;;
45392;SDS011;31129;44.810;10.334;2024-02-21T10:48:45;65.35;;;41.95;;
45392;SDS011;31129;44.810;10.334;2024-02-21T10:53:44;66.38;;;40.63;;
45392;SDS011;31129;44.810;10.334;2024-02-21T10:56:21;64.95;;;39.88;;
45392;SDS011;31129;44.810;10.334;2024-02-21T10:58:53;68.68;;;41.60;;
45392;SDS011;31129;44.810;10.334;2024-02-21T11:01:20;66.57;;;41.43;;
45392;SDS011;31129;44.810;10.334;2024-02-21T11:03:47;67.43;;;42.15;;
45392;SDS011;31129;44.810;10.334;2024-02-21T11:06:14;74.55;;;44.55;;
45392;SDS011;31129;44.810;10.334;2024-02-21T11:08:42;71.72;;;44.47;;
45392;SDS011;31129;44.810;10.334;2024-02-21T11:11:11;69.95;;;44.15;;
45392;SDS011;31129;44.810;10.334;2024-02-21T11:13:42;75.25;;;45.50;;
45392;SDS011;31129;44.810;10.334;2024-02-21T11:16:08;74.22;;;43.95;;
45392;SDS011;31129;44.810;10.334;2024-02-21T11:18:36;75.60;;;45.65;;
45392;SDS011;31129;44.810;10.334;2024-02-21T11:21:04;66.60;;;42.13;;
45392;SDS011;31129;44.810;10.334;2024-02-21T11:23:30;77.00;;;44.97;;
45392;SDS011;31129;44.810;10.334;2024-02-21T11:31:11;72.75;;;43.55;;
45392;SDS011;31129;44.810;10.334;2024-02-21T11:33:41;68.60;;;43.33;;
45392;SDS011;31129;44.810;10.334;2024-02-21T11:36:10;72.78;;;44.63;;
45392;SDS011;31129;44.810;10.334;2024-02-21T11:38:36;67.10;;;42.85;;
45392;SDS011;31129;44.810;10.334;2024-02-21T11:41:01;71.47;;;45.30;;
45392;SDS011;31129;44.810;10.334;2024-02-21T11:43:27;75.50;;;46.67;;
45392;SDS011;31129;44.810;10.334;2024-02-21T11:46:02;71.78;;;45.10;;
45392;SDS011;31129;44.810;10.334;2024-02-21T11:48:29;74.97;;;44.20;;
45392;SDS011;31129;44.810;10.334;2024-02-21T11:50:55;74.65;;;44.47;;
45392;SDS011;31129;44.810;10.334;2024-02-21T11:53:21;70.43;;;45.83;;
45392;SDS011;31129;44.810;10.334;2024-02-21T11:55:47;66.50;;;42.10;;
45392;SDS011;31129;44.810;10.334;2024-02-21T11:58:12;68.15;;;44.38;;
45392;SDS011;31129;44.810;10.334;2024-02-21T12:00:38;66.65;;;45.28;;
45392;SDS011;31129;44.810;10.334;2024-02-21T12:03:04;70.45;;;42.83;;
45392;SDS011;31129;44.810;10.334;2024-02-21T12:05:30;64.70;;;41.80;;
45392;SDS011;31129;44.810;10.334;2024-02-21T12:07:56;60.28;;;39.05;;
45392;SDS011;31129;44.810;10.334;2024-02-21T12:10:23;59.53;;;39.08;;
45392;SDS011;31129;44.810;10.334;2024-02-21T12:12:51;57.50;;;37.80;;
45392;SDS011;31129;44.810;10.334;2024-02-21T12:15:17;57.30;;;39.78;;
45392;SDS011;31129;44.810;10.334;2024-02-21T12:17:43;61.63;;;40.78;;
45392;SDS011;31129;44.810;10.334;2024-02-21T12:20:09;60.50;;;39.90;;
45392;SDS011;31129;44.810;10.334;2024-02-21T12:22:41;66.68;;;41.45;;
45392;SDS011;31129;44.810;10.334;2024-02-21T12:27:45;64.43;;;42.08;;
45392;SDS011;31129;44.810;10.334;2024-02-21T12:30:12;64.10;;;42.03;;
45392;SDS011;31129;44.810;10.334;2024-02-21T12:32:37;65.20;;;43.60;;
45392;SDS011;31129;44.810;10.334;2024-02-21T12:35:03;68.25;;;43.58;;
45392;SDS011;31129;44.810;10.334;2024-02-21T12:37:29;64.15;;;41.63;;
45392;SDS011;31129;44.810;10.334;2024-02-21T12:39:54;64.57;;;41.30;;
45392;SDS011;31129;44.810;10.334;2024-02-21T12:42:20;61.10;;;41.55;;
45392;SDS011;31129;44.810;10.334;2024-02-21T12:44:46;64.78;;;40.72;;
45392;SDS011;31129;44.810;10.334;2024-02-21T12:47:11;63.40;;;41.53;;
45392;SDS011;31129;44.810;10.334;2024-02-21T12:49:37;58.60;;;39.95;;
45392;SDS011;31129;44.810;10.334;2024-02-21T12:52:02;59.53;;;38.55;;
45392;SDS011;31129;44.810;10.334;2024-02-21T12:54:29;55.42;;;37.85;;
45392;SDS011;31129;44.810;10.334;2024-02-21T12:56:56;55.92;;;36.97;;
45392;SDS011;31129;44.810;10.334;2024-02-21T12:59:21;58.67;;;38.05;;
45392;SDS011;31129;44.810;10.334;2024-02-21T13:01:48;57.28;;;38.15;;
45392;SDS011;31129;44.810;10.334;2024-02-21T13:04:13;57.35;;;38.05;;
45392;SDS011;31129;44.810;10.334;2024-02-21T13:06:39;52.17;;;35.55;;
45392;SDS011;31129;44.810;10.334;2024-02-21T13:09:04;52.90;;;32.50;;
45392;SDS011;31129;44.810;10.334;2024-02-21T13:11:34;50.58;;;35.05;;
45392;SDS011;31129;44.810;10.334;2024-02-21T13:13:59;50.85;;;34.30;;
45392;SDS011;31129;44.810;10.334;2024-02-21T13:16:25;53.53;;;36.70;;
45392;SDS011;31129;44.810;10.334;2024-02-21T13:18:51;54.90;;;36.45;;
45392;SDS011;31129;44.810;10.334;2024-02-21T13:21:17;52.95;;;35.75;;
45392;SDS011;31129;44.810;10.334;2024-02-21T13:23:42;54.67;;;34.58;;
45392;SDS011;31129;44.810;10.334;2024-02-21T13:26:09;60.03;;;36.03;;
45392;SDS011;31129;44.810;10.334;2024-02-21T13:28:35;53.83;;;37.35;;
45392;SDS011;31129;44.810;10.334;2024-02-21T13:31:00;53.13;;;36.28;;
45392;SDS011;31129;44.810;10.334;2024-02-21T13:33:26;51.47;;;35.75;;
45392;SDS011;31129;44.810;10.334;2024-02-21T13:35:53;54.90;;;36.13;;
45392;SDS011;31129;44.810;10.334;2024-02-21T13:38:19;54.13;;;36.05;;
45392;SDS011;31129;44.810;10.334;2024-02-21T13:40:44;49.35;;;33.70;;
45392;SDS011;31129;44.810;10.334;2024-02-21T13:43:11;56.63;;;35.72;;
45392;SDS011;31129;44.810;10.334;2024-02-21T13:45:37;50.42;;;34.85;;
45392;SDS011;31129;44.810;10.334;2024-02-21T13:48:03;54.53;;;35.92;;
45392;SDS011;31129;44.810;10.334;2024-02-21T13:50:31;54.40;;;35.88;;
45392;SDS011;31129;44.810;10.334;2024-02-21T13:52:57;56.75;;;37.28;;
45392;SDS011;31129;44.810;10.334;2024-02-21T13:55:23;53.80;;;34.80;;
45392;SDS011;31129;44.810;10.334;2024-02-21T13:57:51;58.08;;;38.55;;
45392;SDS011;31129;44.810;10.334;2024-02-21T14:00:17;56.88;;;35.67;;
45392;SDS011;31129;44.810;10.334;2024-02-21T14:02:43;56.80;;;36.65;;
45392;SDS011;31129;44.810;10.334;2024-02-21T14:05:09;61.30;;;38.25;;
45392;SDS011;31129;44.810;10.334;2024-02-21T14:07:35;61.83;;;37.78;;
45392;SDS011;31129;44.810;10.334;2024-02-21T14:10:01;59.22;;;37.72;;
45392;SDS011;31129;44.810;10.334;2024-02-21T14:12:27;56.22;;;37.55;;
45392;SDS011;31129;44.810;10.334;2024-02-21T14:14:52;59.40;;;37.55;;
45392;SDS011;31129;44.810;10.334;2024-02-21T14:17:18;55.65;;;36.60;;
45392;SDS011;31129;44.810;10.334;2024-02-21T14:19:45;55.83;;;37.13;;
45392;SDS011;31129;44.810;10.334;2024-02-21T14:22:10;57.90;;;38.88;;
45392;SDS011;31129;44.810;10.334;2024-02-21T14:24:36;57.70;;;38.22;;
45392;SDS011;31129;44.810;10.334;2024-02-21T14:27:02;59.83;;;38.85;;